sensor_id;sensor_type;location;lat;lon;timestamp;P1;durP1;ratioP1;P2;durP2;ratioP2
1507;SDS011;745;48.586;10.032;2023-01-16T00:02:14;1.50;;;1.23;;
1507;SDS011;745;48.586;10.032;2023-01-16T00:06:45;2.37;;;1.97;;
1507;SDS011;745;48.586;10.032;2023-01-16T00:11:15;2.60;;;1.60;;
1507;SDS011;745;48.586;10.032;2023-01-16T00:15:46;1.63;;;1.53;;
1507;SDS011;745;48.586;10.032;2023-01-16T00:20:18;4.10;;;1.60;;
1507;SDS011;745;48.586;10.032;2023-01-16T00:24:48;4.43;;;2.30;;
1507;SDS011;745;48.586;10.032;2023-01-16T00:29:19;1.80;;;1.57;;
1507;SDS011;745;48.586;10.032;2023-01-16T00:33:49;1.90;;;1.13;;
1507;SDS011;745;48.586;10.032;2023-01-16T00:38:20;1.53;;;1.30;;
1507;SDS011;745;48.586;10.032;2023-01-16T00:42:50;2.70;;;1.20;;
1507;SDS011;745;48.586;10.032;2023-01-16T00:47:20;1.50;;;1.20;;
1507;SDS011;745;48.586;10.032;2023-01-16T00:51:51;1.80;;;1.30;;
1507;SDS011;745;48.586;10.032;2023-01-16T00:56:21;2.77;;;1.20;;
1507;SDS011;745;48.586;10.032;2023-01-16T01:00:51;3.07;;;1.53;;
1507;SDS011;745;48.586;10.032;2023-01-16T01:05:22;1.77;;;1.43;;
1507;SDS011;745;48.586;10.032;2023-01-16T01:09:52;2.20;;;1.80;;
1507;SDS011;745;48.586;10.032;2023-01-16T01:14:23;3.23;;;1.30;;
1507;SDS011;745;48.586;10.032;2023-01-16T01:18:53;1.30;;;1.20;;
1507;SDS011;745;48.586;10.032;2023-01-16T01:23:23;2.00;;;1.40;;
1507;SDS011;745;48.586;10.032;2023-01-16T01:27:54;2.60;;;1.40;;
1507;SDS011;745;48.586;10.032;2023-01-16T01:32:24;2.47;;;1.37;;
1507;SDS011;745;48.586;10.032;2023-01-16T01:36:54;1.23;;;1.23;;
1507;SDS011;745;48.586;10.032;2023-01-16T01:41:25;1.60;;;1.47;;
1507;SDS011;745;48.586;10.032;2023-01-16T01:45:55;3.73;;;2.27;;
1507;SDS011;745;48.586;10.032;2023-01-16T01:50:40;3.50;;;2.43;;
1507;SDS011;745;48.586;10.032;2023-01-16T01:55:18;4.17;;;2.20;;
1507;SDS011;745;48.586;10.032;2023-01-16T01:59:50;3.10;;;2.57;;
1507;SDS011;745;48.586;10.032;2023-01-16T02:04:27;4.90;;;2.10;;
1507;SDS011;745;48.586;10.032;2023-01-16T02:09:00;2.10;;;1.60;;
1507;SDS011;745;48.586;10.032;2023-01-16T02:13:31;3.53;;;1.33;;
1507;SDS011;745;48.586;10.032;2023-01-16T02:18:01;5.13;;;1.30;;
1507;SDS011;745;48.586;10.032;2023-01-16T02:23:11;1.10;;;1.10;;
1507;SDS011;745;48.586;10.032;2023-01-16T02:28:09;1.50;;;1.40;;
1507;SDS011;745;48.586;10.032;2023-01-16T02:32:51;1.60;;;1.20;;
1507;SDS011;745;48.586;10.032;2023-01-16T02:42:22;1.50;;;1.40;;
1507;SDS011;745;48.586;10.032;2023-01-16T02:56:32;1.47;;;1.30;;
1507;SDS011;745;48.586;10.032;2023-01-16T03:01:12;1.50;;;1.40;;
1507;SDS011;745;48.586;10.032;2023-01-16T03:05:43;1.60;;;1.43;;
1507;SDS011;745;48.586;10.032;2023-01-16T03:15:19;3.10;;;1.80;;
1507;SDS011;745;48.586;10.032;2023-01-16T03:24:53;2.20;;;2.00;;
1507;SDS011;745;48.586;10.032;2023-01-16T03:29:41;4.57;;;3.03;;
1507;SDS011;745;48.586;10.032;2023-01-16T03:34:32;5.60;;;3.23;;
1507;SDS011;745;48.586;10.032;2023-01-16T03:39:05;3.43;;;3.10;;
1507;SDS011;745;48.586;10.032;2023-01-16T03:43:37;7.80;;;4.20;;
1507;SDS011;745;48.586;10.032;2023-01-16T03:48:13;8.63;;;5.37;;
1507;SDS011;745;48.586;10.032;2023-01-16T03:52:48;7.90;;;6.33;;
1507;SDS011;745;48.586;10.032;2023-01-16T03:57:23;7.97;;;6.20;;
1507;SDS011;745;48.586;10.032;2023-01-16T04:01:57;6.70;;;4.70;;
1507;SDS011;745;48.586;10.032;2023-01-16T04:06:34;7.57;;;4.60;;
1507;SDS011;745;48.586;10.032;2023-01-16T04:11:07;4.30;;;3.17;;
1507;SDS011;745;48.586;10.032;2023-01-16T04:15:39;5.50;;;4.30;;
1507;SDS011;745;48.586;10.032;2023-01-16T04:20:12;5.23;;;3.67;;
1507;SDS011;745;48.586;10.032;2023-01-16T04:24:43;4.73;;;3.53;;
1507;SDS011;745;48.586;10.032;2023-01-16T04:29:13;3.33;;;2.90;;
1507;SDS011;745;48.586;10.032;2023-01-16T04:33:44;7.50;;;4.40;;
1507;SDS011;745;48.586;10.032;2023-01-16T04:38:14;5.40;;;3.70;;
1507;SDS011;745;48.586;10.032;2023-01-16T04:42:44;6.10;;;4.00;;
1507;SDS011;745;48.586;10.032;2023-01-16T04:47:15;4.80;;;3.83;;
1507;SDS011;745;48.586;10.032;2023-01-16T04:51:45;5.00;;;3.30;;
1507;SDS011;745;48.586;10.032;2023-01-16T04:56:15;3.13;;;2.80;;
1507;SDS011;745;48.586;10.032;2023-01-16T05:00:47;4.03;;;3.50;;
1507;SDS011;745;48.586;10.032;2023-01-16T05:05:17;3.60;;;3.13;;
1507;SDS011;745;48.586;10.032;2023-01-16T05:09:48;4.30;;;3.40;;
1507;SDS011;745;48.586;10.032;2023-01-16T05:14:18;7.00;;;3.40;;
1507;SDS011;745;48.586;10.032;2023-01-16T05:18:48;5.50;;;3.80;;
1507;SDS011;745;48.586;10.032;2023-01-16T05:23:19;4.60;;;3.60;;
1507;SDS011;745;48.586;10.032;2023-01-16T05:27:50;5.20;;;3.47;;
1507;SDS011;745;48.586;10.032;2023-01-16T05:32:20;3.43;;;3.13;;
1507;SDS011;745;48.586;10.032;2023-01-16T05:36:51;2.60;;;2.40;;
1507;SDS011;745;48.586;10.032;2023-01-16T05:41:21;3.20;;;2.90;;
1507;SDS011;745;48.586;10.032;2023-01-16T05:45:51;4.30;;;3.00;;
1507;SDS011;745;48.586;10.032;2023-01-16T05:50:22;4.30;;;3.60;;
1507;SDS011;745;48.586;10.032;2023-01-16T05:54:53;6.00;;;4.63;;
1507;SDS011;745;48.586;10.032;2023-01-16T05:59:24;4.47;;;4.07;;
1507;SDS011;745;48.586;10.032;2023-01-16T06:03:54;4.57;;;3.60;;
1507;SDS011;745;48.586;10.032;2023-01-16T06:08:25;3.77;;;3.23;;
1507;SDS011;745;48.586;10.032;2023-01-16T06:12:55;4.33;;;3.43;;
1507;SDS011;745;48.586;10.032;2023-01-16T06:17:25;3.37;;;3.07;;
1507;SDS011;745;48.586;10.032;2023-01-16T06:21:56;3.50;;;3.07;;
1507;SDS011;745;48.586;10.032;2023-01-16T06:26:26;3.63;;;3.33;;
1507;SDS011;745;48.586;10.032;2023-01-16T06:30:57;3.67;;;3.33;;
1507;SDS011;745;48.586;10.032;2023-01-16T06:35:27;7.43;;;4.73;;
1507;SDS011;745;48.586;10.032;2023-01-16T06:39:57;11.13;;;7.57;;
1507;SDS011;745;48.586;10.032;2023-01-16T06:44:33;8.37;;;6.23;;
1507;SDS011;745;48.586;10.032;2023-01-16T06:49:04;7.60;;;5.60;;
1507;SDS011;745;48.586;10.032;2023-01-16T06:53:34;6.57;;;5.40;;
1507;SDS011;745;48.586;10.032;2023-01-16T06:58:04;7.17;;;4.90;;
1507;SDS011;745;48.586;10.032;2023-01-16T07:02:35;9.60;;;6.13;;
1507;SDS011;745;48.586;10.032;2023-01-16T07:07:09;6.27;;;5.67;;
1507;SDS011;745;48.586;10.032;2023-01-16T07:11:39;8.63;;;6.00;;
1507;SDS011;745;48.586;10.032;2023-01-16T07:16:13;6.57;;;5.70;;
1507;SDS011;745;48.586;10.032;2023-01-16T07:21:04;6.37;;;5.63;;
1507;SDS011;745;48.586;10.032;2023-01-16T07:25:54;8.90;;;6.90;;
1507;SDS011;745;48.586;10.032;2023-01-16T07:30:26;8.30;;;7.50;;
1507;SDS011;745;48.586;10.032;2023-01-16T07:34:56;7.40;;;6.70;;
1507;SDS011;745;48.586;10.032;2023-01-16T07:39:27;5.50;;;5.00;;
1507;SDS011;745;48.586;10.032;2023-01-16T07:43:58;5.70;;;5.10;;
1507;SDS011;745;48.586;10.032;2023-01-16T07:48:28;5.37;;;4.87;;
1507;SDS011;745;48.586;10.032;2023-01-16T07:52:59;5.53;;;4.97;;
1507;SDS011;745;48.586;10.032;2023-01-16T07:57:29;4.87;;;4.37;;
1507;SDS011;745;48.586;10.032;2023-01-16T08:01:59;4.50;;;4.10;;
1507;SDS011;745;48.586;10.032;2023-01-16T08:06:31;5.07;;;4.17;;
1507;SDS011;745;48.586;10.032;2023-01-16T08:11:02;3.90;;;3.47;;
1507;SDS011;745;48.586;10.032;2023-01-16T08:15:55;3.07;;;2.83;;
1507;SDS011;745;48.586;10.032;2023-01-16T08:20:26;4.10;;;3.53;;
1507;SDS011;745;48.586;10.032;2023-01-16T08:24:56;6.03;;;3.80;;
1507;SDS011;745;48.586;10.032;2023-01-16T08:29:26;3.10;;;2.90;;
1507;SDS011;745;48.586;10.032;2023-01-16T08:33:57;2.80;;;2.60;;
1507;SDS011;745;48.586;10.032;2023-01-16T08:38:28;2.30;;;2.10;;
1507;SDS011;745;48.586;10.032;2023-01-16T08:42:58;2.67;;;2.47;;
1507;SDS011;745;48.586;10.032;2023-01-16T08:47:47;3.57;;;2.87;;
1507;SDS011;745;48.586;10.032;2023-01-16T08:52:35;3.20;;;2.90;;
1507;SDS011;745;48.586;10.032;2023-01-16T08:57:06;4.67;;;2.90;;
1507;SDS011;745;48.586;10.032;2023-01-16T09:01:37;2.20;;;2.00;;
1507;SDS011;745;48.586;10.032;2023-01-16T09:06:08;2.30;;;1.90;;
1507;SDS011;745;48.586;10.032;2023-01-16T09:10:39;2.53;;;2.00;;
1507;SDS011;745;48.586;10.032;2023-01-16T09:15:09;1.80;;;1.70;;
1507;SDS011;745;48.586;10.032;2023-01-16T09:19:39;2.00;;;1.90;;
1507;SDS011;745;48.586;10.032;2023-01-16T09:24:10;2.17;;;1.97;;
1507;SDS011;745;48.586;10.032;2023-01-16T09:28:40;3.30;;;2.00;;
1507;SDS011;745;48.586;10.032;2023-01-16T09:33:10;2.10;;;1.90;;
1507;SDS011;745;48.586;10.032;2023-01-16T09:37:44;1.90;;;1.70;;
1507;SDS011;745;48.586;10.032;2023-01-16T09:47:47;2.30;;;2.10;;
1507;SDS011;745;48.586;10.032;2023-01-16T09:52:22;1.80;;;1.70;;
1507;SDS011;745;48.586;10.032;2023-01-16T09:57:13;2.70;;;2.20;;
1507;SDS011;745;48.586;10.032;2023-01-16T10:02:13;2.03;;;1.93;;
1507;SDS011;745;48.586;10.032;2023-01-16T10:12:11;3.03;;;1.97;;
1507;SDS011;745;48.586;10.032;2023-01-16T10:16:51;2.63;;;2.43;;
1507;SDS011;745;48.586;10.032;2023-01-16T10:27:09;2.10;;;1.77;;
1507;SDS011;745;48.586;10.032;2023-01-16T10:32:04;1.97;;;1.73;;
1507;SDS011;745;48.586;10.032;2023-01-16T10:36:42;1.60;;;1.50;;
1507;SDS011;745;48.586;10.032;2023-01-16T10:41:34;1.67;;;1.57;;
1507;SDS011;745;48.586;10.032;2023-01-16T10:46:24;2.10;;;1.80;;
1507;SDS011;745;48.586;10.032;2023-01-16T10:51:13;1.53;;;1.43;;
1507;SDS011;745;48.586;10.032;2023-01-16T10:55:44;2.17;;;1.97;;
1507;SDS011;745;48.586;10.032;2023-01-16T11:00:23;4.57;;;2.23;;
1507;SDS011;745;48.586;10.032;2023-01-16T11:04:59;2.83;;;2.00;;
1507;SDS011;745;48.586;10.032;2023-01-16T11:09:31;2.47;;;2.27;;
1507;SDS011;745;48.586;10.032;2023-01-16T11:14:12;2.47;;;2.27;;
1507;SDS011;745;48.586;10.032;2023-01-16T11:19:14;2.10;;;1.90;;
1507;SDS011;745;48.586;10.032;2023-01-16T11:23:48;2.37;;;2.27;;
1507;SDS011;745;48.586;10.032;2023-01-16T11:28:28;2.00;;;1.87;;
1507;SDS011;745;48.586;10.032;2023-01-16T11:33:01;1.90;;;1.80;;
1507;SDS011;745;48.586;10.032;2023-01-16T11:37:37;6.87;;;4.10;;
1507;SDS011;745;48.586;10.032;2023-01-16T11:42:09;3.57;;;3.27;;
1507;SDS011;745;48.586;10.032;2023-01-16T11:47:01;5.30;;;4.20;;
1507;SDS011;745;48.586;10.032;2023-01-16T11:51:32;4.90;;;3.37;;
1507;SDS011;745;48.586;10.032;2023-01-16T12:05:49;2.20;;;2.00;;
1507;SDS011;745;48.586;10.032;2023-01-16T12:10:44;2.07;;;1.87;;
1507;SDS011;745;48.586;10.032;2023-01-16T12:20:18;2.17;;;1.67;;
1507;SDS011;745;48.586;10.032;2023-01-16T12:29:51;5.20;;;3.60;;
1507;SDS011;745;48.586;10.032;2023-01-16T12:39:11;3.20;;;2.90;;
1507;SDS011;745;48.586;10.032;2023-01-16T12:44:00;3.07;;;2.87;;
1507;SDS011;745;48.586;10.032;2023-01-16T12:48:47;2.40;;;2.20;;
1507;SDS011;745;48.586;10.032;2023-01-16T12:58:36;2.50;;;2.30;;
1507;SDS011;745;48.586;10.032;2023-01-16T13:03:14;3.40;;;2.27;;
1507;SDS011;745;48.586;10.032;2023-01-16T13:07:55;1.93;;;1.83;;
1507;SDS011;745;48.586;10.032;2023-01-16T13:12:32;2.97;;;2.27;;
1507;SDS011;745;48.586;10.032;2023-01-16T13:17:42;2.30;;;2.10;;
1507;SDS011;745;48.586;10.032;2023-01-16T13:22:23;2.47;;;2.07;;
1507;SDS011;745;48.586;10.032;2023-01-16T13:26:57;4.87;;;1.90;;
1507;SDS011;745;48.586;10.032;2023-01-16T13:31:39;1.70;;;1.60;;
1507;SDS011;745;48.586;10.032;2023-01-16T13:46:17;2.40;;;2.20;;
1507;SDS011;745;48.586;10.032;2023-01-16T13:50:52;2.27;;;2.00;;
1507;SDS011;745;48.586;10.032;2023-01-16T13:55:31;2.13;;;1.93;;
1507;SDS011;745;48.586;10.032;2023-01-16T14:00:10;2.47;;;2.03;;
1507;SDS011;745;48.586;10.032;2023-01-16T14:04:42;4.40;;;2.30;;
1507;SDS011;745;48.586;10.032;2023-01-16T14:19:21;4.10;;;2.90;;
1507;SDS011;745;48.586;10.032;2023-01-16T14:23:53;4.57;;;2.93;;
1507;SDS011;745;48.586;10.032;2023-01-16T14:28:30;2.40;;;2.17;;
1507;SDS011;745;48.586;10.032;2023-01-16T14:33:02;4.50;;;3.10;;
1507;SDS011;745;48.586;10.032;2023-01-16T14:37:43;4.23;;;2.70;;
1507;SDS011;745;48.586;10.032;2023-01-16T14:42:17;3.57;;;2.70;;
1507;SDS011;745;48.586;10.032;2023-01-16T14:51:59;1.83;;;1.50;;
1507;SDS011;745;48.586;10.032;2023-01-16T14:56:49;1.80;;;1.70;;
1507;SDS011;745;48.586;10.032;2023-01-16T15:01:24;3.00;;;1.93;;
1507;SDS011;745;48.586;10.032;2023-01-16T15:06:15;2.57;;;2.37;;
1507;SDS011;745;48.586;10.032;2023-01-16T15:10:46;2.60;;;2.40;;
1507;SDS011;745;48.586;10.032;2023-01-16T15:20:18;3.33;;;2.30;;
1507;SDS011;745;48.586;10.032;2023-01-16T15:25:23;2.10;;;1.90;;
1507;SDS011;745;48.586;10.032;2023-01-16T15:30:00;3.60;;;2.30;;
1507;SDS011;745;48.586;10.032;2023-01-16T15:34:34;4.07;;;2.53;;
1507;SDS011;745;48.586;10.032;2023-01-16T15:43:41;3.70;;;2.57;;
1507;SDS011;745;48.586;10.032;2023-01-16T15:53:39;4.13;;;2.53;;
1507;SDS011;745;48.586;10.032;2023-01-16T15:58:14;2.93;;;2.60;;
1507;SDS011;745;48.586;10.032;2023-01-16T16:02:45;6.40;;;4.40;;
1507;SDS011;745;48.586;10.032;2023-01-16T16:07:16;4.57;;;3.70;;
1507;SDS011;745;48.586;10.032;2023-01-16T16:11:46;2.60;;;2.40;;
1507;SDS011;745;48.586;10.032;2023-01-16T16:16:23;2.63;;;2.43;;
1507;SDS011;745;48.586;10.032;2023-01-16T16:21:14;2.47;;;2.10;;
1507;SDS011;745;48.586;10.032;2023-01-16T16:25:46;3.80;;;2.80;;
1507;SDS011;745;48.586;10.032;2023-01-16T16:30:19;3.40;;;3.10;;
1507;SDS011;745;48.586;10.032;2023-01-16T16:34:54;4.17;;;3.47;;
1507;SDS011;745;48.586;10.032;2023-01-16T16:44:20;2.63;;;2.43;;
1507;SDS011;745;48.586;10.032;2023-01-16T16:48:55;3.43;;;2.67;;
1507;SDS011;745;48.586;10.032;2023-01-16T16:53:27;1.90;;;1.80;;
1507;SDS011;745;48.586;10.032;2023-01-16T16:57:58;2.43;;;2.23;;
1507;SDS011;745;48.586;10.032;2023-01-16T17:02:31;3.13;;;2.37;;
1507;SDS011;745;48.586;10.032;2023-01-16T17:07:04;3.00;;;2.70;;
1507;SDS011;745;48.586;10.032;2023-01-16T17:11:38;1.67;;;1.57;;
1507;SDS011;745;48.586;10.032;2023-01-16T17:16:16;2.80;;;2.40;;
1507;SDS011;745;48.586;10.032;2023-01-16T17:20:48;2.27;;;2.10;;
1507;SDS011;745;48.586;10.032;2023-01-16T17:25:19;2.60;;;2.40;;
1507;SDS011;745;48.586;10.032;2023-01-16T17:29:53;3.10;;;2.67;;
1507;SDS011;745;48.586;10.032;2023-01-16T17:34:24;2.57;;;2.30;;
1507;SDS011;745;48.586;10.032;2023-01-16T17:38:55;10.17;;;2.50;;
1507;SDS011;745;48.586;10.032;2023-01-16T17:43:25;2.80;;;2.60;;
1507;SDS011;745;48.586;10.032;2023-01-16T17:48:14;3.30;;;3.00;;
1507;SDS011;745;48.586;10.032;2023-01-16T17:52:44;2.77;;;2.50;;
1507;SDS011;745;48.586;10.032;2023-01-16T17:57:15;2.97;;;2.77;;
1507;SDS011;745;48.586;10.032;2023-01-16T18:01:45;3.07;;;2.70;;
1507;SDS011;745;48.586;10.032;2023-01-16T18:06:15;5.57;;;4.23;;
1507;SDS011;745;48.586;10.032;2023-01-16T18:10:46;3.90;;;3.20;;
1507;SDS011;745;48.586;10.032;2023-01-16T18:15:16;7.23;;;4.20;;
1507;SDS011;745;48.586;10.032;2023-01-16T18:20:05;3.13;;;2.70;;
1507;SDS011;745;48.586;10.032;2023-01-16T18:24:37;2.40;;;2.20;;
1507;SDS011;745;48.586;10.032;2023-01-16T18:29:08;2.50;;;2.30;;
1507;SDS011;745;48.586;10.032;2023-01-16T18:33:38;8.93;;;6.20;;
1507;SDS011;745;48.586;10.032;2023-01-16T18:38:09;4.10;;;3.60;;
1507;SDS011;745;48.586;10.032;2023-01-16T18:42:58;2.80;;;1.80;;
1507;SDS011;745;48.586;10.032;2023-01-16T18:47:48;2.40;;;2.00;;
1507;SDS011;745;48.586;10.032;2023-01-16T18:52:36;2.07;;;1.70;;
1507;SDS011;745;48.586;10.032;2023-01-16T18:57:26;2.60;;;2.40;;
1507;SDS011;745;48.586;10.032;2023-01-16T19:06:57;2.23;;;2.10;;
1507;SDS011;745;48.586;10.032;2023-01-16T19:11:29;1.87;;;1.77;;
1507;SDS011;745;48.586;10.032;2023-01-16T19:16:00;2.43;;;2.20;;
1507;SDS011;745;48.586;10.032;2023-01-16T19:20:49;2.67;;;2.47;;
1507;SDS011;745;48.586;10.032;2023-01-16T19:25:20;2.07;;;1.97;;
1507;SDS011;745;48.586;10.032;2023-01-16T19:29:52;2.37;;;2.17;;
1507;SDS011;745;48.586;10.032;2023-01-16T19:34:22;18.67;;;10.93;;
1507;SDS011;745;48.586;10.032;2023-01-16T19:38:55;15.23;;;8.33;;
1507;SDS011;745;48.586;10.032;2023-01-16T19:43:27;13.20;;;8.27;;
1507;SDS011;745;48.586;10.032;2023-01-16T19:48:19;11.80;;;8.10;;
1507;SDS011;745;48.586;10.032;2023-01-16T19:52:50;11.73;;;7.40;;
1507;SDS011;745;48.586;10.032;2023-01-16T19:57:20;12.93;;;8.00;;
1507;SDS011;745;48.586;10.032;2023-01-16T20:06:24;6.00;;;4.50;;
1507;SDS011;745;48.586;10.032;2023-01-16T20:10:54;5.57;;;4.60;;
1507;SDS011;745;48.586;10.032;2023-01-16T20:15:24;9.23;;;6.37;;
1507;SDS011;745;48.586;10.032;2023-01-16T20:19:55;9.40;;;5.43;;
1507;SDS011;745;48.586;10.032;2023-01-16T20:24:25;12.77;;;8.37;;
1507;SDS011;745;48.586;10.032;2023-01-16T20:28:57;5.20;;;3.20;;
1507;SDS011;745;48.586;10.032;2023-01-16T20:33:28;10.73;;;6.50;;
1507;SDS011;745;48.586;10.032;2023-01-16T20:37:58;4.40;;;4.03;;
1507;SDS011;745;48.586;10.032;2023-01-16T20:42:28;7.27;;;5.70;;
1507;SDS011;745;48.586;10.032;2023-01-16T20:47:18;3.03;;;2.53;;
1507;SDS011;745;48.586;10.032;2023-01-16T20:51:48;3.00;;;1.90;;
1507;SDS011;745;48.586;10.032;2023-01-16T20:56:19;2.17;;;1.97;;
1507;SDS011;745;48.586;10.032;2023-01-16T21:00:49;1.70;;;1.60;;
1507;SDS011;745;48.586;10.032;2023-01-16T21:05:30;4.33;;;3.33;;
1507;SDS011;745;48.586;10.032;2023-01-16T21:10:02;3.30;;;2.53;;
1507;SDS011;745;48.586;10.032;2023-01-16T21:14:33;2.73;;;2.03;;
1507;SDS011;745;48.586;10.032;2023-01-16T21:19:06;2.07;;;1.60;;
1507;SDS011;745;48.586;10.032;2023-01-16T21:23:56;2.20;;;1.50;;
1507;SDS011;745;48.586;10.032;2023-01-16T21:28:27;2.90;;;1.90;;
1507;SDS011;745;48.586;10.032;2023-01-16T21:32:57;4.10;;;1.97;;
1507;SDS011;745;48.586;10.032;2023-01-16T21:37:28;2.67;;;1.90;;
1507;SDS011;745;48.586;10.032;2023-01-16T21:41:58;2.07;;;1.60;;
1507;SDS011;745;48.586;10.032;2023-01-16T21:46:47;2.90;;;1.87;;
1507;SDS011;745;48.586;10.032;2023-01-16T21:51:18;5.30;;;1.50;;
1507;SDS011;745;48.586;10.032;2023-01-16T21:55:51;1.67;;;1.50;;
1507;SDS011;745;48.586;10.032;2023-01-16T22:00:25;1.43;;;1.33;;
1507;SDS011;745;48.586;10.032;2023-01-16T22:04:55;2.97;;;1.60;;
1507;SDS011;745;48.586;10.032;2023-01-16T22:09:26;1.30;;;1.20;;
1507;SDS011;745;48.586;10.032;2023-01-16T22:13:56;1.67;;;1.50;;
1507;SDS011;745;48.586;10.032;2023-01-16T22:18:45;1.63;;;1.50;;
1507;SDS011;745;48.586;10.032;2023-01-16T22:23:15;2.17;;;1.67;;
1507;SDS011;745;48.586;10.032;2023-01-16T22:27:51;1.60;;;1.30;;
1507;SDS011;745;48.586;10.032;2023-01-16T22:32:23;3.20;;;1.50;;
1507;SDS011;745;48.586;10.032;2023-01-16T22:36:54;1.73;;;1.13;;
1507;SDS011;745;48.586;10.032;2023-01-16T22:41:24;2.93;;;1.40;;
1507;SDS011;745;48.586;10.032;2023-01-16T22:45:58;2.83;;;1.50;;
1507;SDS011;745;48.586;10.032;2023-01-16T22:50:47;1.70;;;1.60;;
1507;SDS011;745;48.586;10.032;2023-01-16T22:55:18;1.50;;;1.40;;
1507;SDS011;745;48.586;10.032;2023-01-16T22:59:48;4.23;;;2.60;;
1507;SDS011;745;48.586;10.032;2023-01-16T23:04:18;1.73;;;1.63;;
1507;SDS011;745;48.586;10.032;2023-01-16T23:08:49;2.60;;;1.70;;
1507;SDS011;745;48.586;10.032;2023-01-16T23:13:19;1.37;;;1.27;;
1507;SDS011;745;48.586;10.032;2023-01-16T23:17:49;1.00;;;1.00;;
1507;SDS011;745;48.586;10.032;2023-01-16T23:22:22;1.53;;;1.43;;
1507;SDS011;745;48.586;10.032;2023-01-16T23:26:53;1.63;;;1.53;;
1507;SDS011;745;48.586;10.032;2023-01-16T23:31:24;1.73;;;1.40;;
1507;SDS011;745;48.586;10.032;2023-01-16T23:35:56;2.20;;;1.30;;
1507;SDS011;745;48.586;10.032;2023-01-16T23:40:27;2.40;;;1.67;;
1507;SDS011;745;48.586;10.032;2023-01-16T23:44:58;1.40;;;1.30;;
1507;SDS011;745;48.586;10.032;2023-01-16T23:49:32;2.53;;;1.60;;
1507;SDS011;745;48.586;10.032;2023-01-16T23:54:10;1.93;;;1.50;;
1507;SDS011;745;48.586;10.032;2023-01-16T23:58:41;2.20;;;1.87;;
